Time;durP1;ratioP1;P1;durP2;ratioP2;P2;SDS_P1;SDS_P2;PMS_P1;PMS_P2;Temp;Humidity;BMP_temperature;BMP_pressure;BME280_temperature;BME280_humidity;BME280_pressure;Samples;Min_cycle;Max_cycle;Signal;HPM_P1;HPM_P2
2023/03/22 00:01:11;;;;;;;51.10;29.60;;;;;;;;;;5114352;28;20115;-70
2023/03/22 00:03:56;;;;;;;57.00;33.47;;;;;;;;;;5114169;28;20034;-69
2023/03/22 00:06:42;;;;;;;54.20;32.03;;;;;;;;;;5099438;28;20044;-70
2023/03/22 00:09:27;;;;;;;53.30;32.22;;;;;;;;;;5099670;28;20047;-70
2023/03/22 00:12:13;;;;;;;53.72;32.88;;;;;;;;;;5114832;28;20027;-69
2023/03/22 00:14:59;;;;;;;49.33;30.25;;;;;;;;;;5114703;28;20028;-70
2023/03/22 00:17:44;;;;;;;55.20;31.80;;;;;;;;;;5115067;28;20038;-69
2023/03/22 00:20:32;;;;;;;52.90;31.17;;;;;;;;;;5114911;28;20359;-69
2023/03/22 00:23:18;;;;;;;52.40;31.02;;;;;;;;;;5114852;28;20038;-69
2023/03/22 00:26:04;;;;;;;53.15;31.17;;;;;;;;;;5114418;28;20465;-70
2023/03/22 00:28:49;;;;;;;49.35;30.52;;;;;;;;;;5101606;28;20023;-69
2023/03/22 00:31:35;;;;;;;52.97;31.02;;;;;;;;;;5114527;28;20034;-71
2023/03/22 00:34:21;;;;;;;55.10;31.23;;;;;;;;;;5114233;28;20047;-70
2023/03/22 00:37:06;;;;;;;54.42;31.67;;;;;;;;;;5114696;28;20127;-69
2023/03/22 00:39:52;;;;;;;52.40;31.23;;;;;;;;;;5099552;28;20364;-70
2023/03/22 00:42:39;;;;;;;48.72;30.73;;;;;;;;;;5114779;28;20031;-70
2023/03/22 00:45:25;;;;;;;51.13;30.90;;;;;;;;;;5115078;28;20019;-69
2023/03/22 00:48:11;;;;;;;53.70;30.75;;;;;;;;;;5100860;28;20020;-70
2023/03/22 00:50:57;;;;;;;48.35;30.27;;;;;;;;;;5114384;28;20031;-70
2023/03/22 00:53:43;;;;;;;52.35;31.77;;;;;;;;;;5114170;28;20467;-70
2023/03/22 00:56:29;;;;;;;54.13;30.90;;;;;;;;;;5117776;28;20024;-71
2023/03/22 00:59:15;;;;;;;58.45;32.38;;;;;;;;;;5103271;28;20364;-70
2023/03/22 01:02:03;;;;;;;56.33;32.75;;;;;;;;;;5117533;28;20360;-70
2023/03/22 01:04:48;;;;;;;57.50;33.53;;;;;;;;;;5117668;28;20116;-70
2023/03/22 01:07:37;;;;;;;57.05;34.88;;;;;;;;;;5116916;28;20036;-69
2023/03/22 01:10:22;;;;;;;59.63;33.83;;;;;;;;;;5118279;28;20108;-70
2023/03/22 01:13:09;;;;;;;67.50;36.08;;;;;;;;;;5117553;28;20055;-70
2023/03/22 01:15:56;;;;;;;56.88;34.65;;;;;;;;;;5103488;28;20070;-70
2023/03/22 01:18:42;;;;;;;63.42;36.47;;;;;;;;;;5117632;28;20050;-70
2023/03/22 01:21:27;;;;;;;58.50;34.85;;;;;;;;;;5117108;28;20019;-70
2023/03/22 01:24:13;;;;;;;58.17;34.00;;;;;;;;;;5103384;28;20028;-70
2023/03/22 01:26:59;;;;;;;55.33;32.22;;;;;;;;;;5118133;28;20048;-69
2023/03/22 01:29:44;;;;;;;56.85;31.52;;;;;;;;;;5117378;28;20436;-70
2023/03/22 01:32:30;;;;;;;54.30;31.40;;;;;;;;;;5102542;28;20027;-69
2023/03/22 01:35:16;;;;;;;55.42;31.83;;;;;;;;;;5116856;28;20436;-70
2023/03/22 01:38:02;;;;;;;56.78;32.85;;;;;;;;;;5117346;28;20031;-70
2023/03/22 01:40:47;;;;;;;55.70;32.05;;;;;;;;;;5117371;28;20023;-69
2023/03/22 01:43:33;;;;;;;61.55;34.90;;;;;;;;;;5117437;28;20020;-69
2023/03/22 01:46:18;;;;;;;60.13;33.80;;;;;;;;;;5117083;28;20352;-69
2023/03/22 01:49:05;;;;;;;59.33;32.65;;;;;;;;;;5116881;28;20026;-70
2023/03/22 01:51:52;;;;;;;63.38;35.13;;;;;;;;;;5116943;28;20015;-70
2023/03/22 01:54:41;;;;;;;62.22;33.63;;;;;;;;;;5116982;28;20112;-70
2023/03/22 01:57:27;;;;;;;61.70;33.83;;;;;;;;;;5115866;28;20024;-70
2023/03/22 02:00:14;;;;;;;67.72;35.45;;;;;;;;;;5116556;28;20016;-70
2023/03/22 02:03:00;;;;;;;72.85;38.80;;;;;;;;;;5116284;28;20030;-70
2023/03/22 02:05:46;;;;;;;60.85;34.55;;;;;;;;;;5115321;27;20039;-70
2023/03/22 02:08:32;;;;;;;63.28;34.15;;;;;;;;;;5115586;28;20105;-71
2023/03/22 02:11:26;;;;;;;57.15;32.83;;;;;;;;;;5117349;28;20028;-70
2023/03/22 02:14:30;;;;;;;59.33;33.63;;;;;;;;;;5116663;28;20031;-69
2023/03/22 02:17:15;;;;;;;57.80;31.13;;;;;;;;;;5116486;28;20030;-69
2023/03/22 02:20:09;;;;;;;55.90;31.75;;;;;;;;;;5117494;28;20106;-70
2023/03/22 02:22:58;;;;;;;64.10;32.83;;;;;;;;;;5101611;28;20019;-69
2023/03/22 02:25:52;;;;;;;56.55;33.55;;;;;;;;;;5116491;28;20024;-69
2023/03/22 02:28:47;;;;;;;58.08;32.50;;;;;;;;;;5116604;28;20491;-69
2023/03/22 02:31:47;;;;;;;59.67;32.92;;;;;;;;;;5116158;28;20027;-69
2023/03/22 02:34:42;;;;;;;60.38;33.55;;;;;;;;;;5115781;28;20440;-69
2023/03/22 02:37:42;;;;;;;63.60;34.30;;;;;;;;;;5115928;28;20352;-69
2023/03/22 02:40:27;;;;;;;60.42;33.70;;;;;;;;;;5115125;28;20089;-69
2023/03/22 02:43:13;;;;;;;61.45;34.00;;;;;;;;;;5114870;28;20022;-69
2023/03/22 02:46:20;;;;;;;61.40;33.58;;;;;;;;;;5115677;28;20019;-71
2023/03/22 02:49:06;;;;;;;62.15;34.75;;;;;;;;;;5116120;28;20441;-69
2023/03/22 02:51:59;;;;;;;58.55;33.78;;;;;;;;;;5115084;28;20035;-69
2023/03/22 02:54:50;;;;;;;55.88;31.77;;;;;;;;;;5115668;28;20022;-69
2023/03/22 02:57:42;;;;;;;66.22;35.38;;;;;;;;;;5115490;28;20032;-71
2023/03/22 03:00:28;;;;;;;59.80;33.65;;;;;;;;;;5115865;28;20020;-70
2023/03/22 03:03:17;;;;;;;66.95;36.35;;;;;;;;;;5115231;28;20024;-70
2023/03/22 03:06:07;;;;;;;63.35;33.35;;;;;;;;;;5102129;27;20051;-70
2023/03/22 03:08:53;;;;;;;61.63;32.53;;;;;;;;;;5100236;28;20027;-70
2023/03/22 03:11:38;;;;;;;58.65;32.83;;;;;;;;;;5115127;28;20019;-69
2023/03/22 03:14:29;;;;;;;59.08;33.47;;;;;;;;;;5115309;28;20035;-70
2023/03/22 03:17:23;;;;;;;53.20;30.25;;;;;;;;;;5115236;28;20424;-69
2023/03/22 03:20:21;;;;;;;61.10;33.92;;;;;;;;;;5116156;28;20039;-69
2023/03/22 03:23:15;;;;;;;60.30;34.15;;;;;;;;;;5115390;28;20396;-69
2023/03/22 03:26:07;;;;;;;61.28;32.85;;;;;;;;;;5116205;27;20081;-70
2023/03/22 03:29:04;;;;;;;63.22;34.92;;;;;;;;;;5115183;28;20102;-70
2023/03/22 03:32:02;;;;;;;63.83;35.45;;;;;;;;;;5114761;28;20097;-70
2023/03/22 03:34:56;;;;;;;67.40;36.22;;;;;;;;;;5115488;28;20020;-70
2023/03/22 03:37:45;;;;;;;68.18;34.67;;;;;;;;;;5115109;28;20110;-69
2023/03/22 03:40:33;;;;;;;62.60;33.65;;;;;;;;;;5115496;28;20447;-70
2023/03/22 03:43:19;;;;;;;66.63;34.95;;;;;;;;;;5115532;28;20044;-69
2023/03/22 03:46:06;;;;;;;63.83;34.45;;;;;;;;;;5114530;28;20031;-70
2023/03/22 03:48:51;;;;;;;64.10;33.55;;;;;;;;;;5099747;28;20061;-70
2023/03/22 03:51:45;;;;;;;66.57;34.45;;;;;;;;;;5114579;28;20031;-70
2023/03/22 03:54:30;;;;;;;63.75;35.13;;;;;;;;;;5114540;28;20093;-70
2023/03/22 03:57:16;;;;;;;65.85;35.15;;;;;;;;;;5101686;28;20019;-69
2023/03/22 04:00:03;;;;;;;60.97;33.47;;;;;;;;;;5114865;28;20012;-70
2023/03/22 04:02:48;;;;;;;62.75;33.70;;;;;;;;;;5113831;28;20038;-70
2023/03/22 04:05:34;;;;;;;56.35;31.30;;;;;;;;;;5115212;28;20069;-70
2023/03/22 04:08:19;;;;;;;55.22;32.00;;;;;;;;;;5099337;28;20024;-69
2023/03/22 04:11:05;;;;;;;55.30;30.80;;;;;;;;;;5114623;28;20030;-70
2023/03/22 04:13:51;;;;;;;56.92;31.20;;;;;;;;;;5101316;28;20490;-70
2023/03/22 04:16:36;;;;;;;53.40;30.40;;;;;;;;;;5114116;28;20024;-69
2023/03/22 04:19:22;;;;;;;52.92;30.13;;;;;;;;;;5098257;28;20038;-70
2023/03/22 04:22:13;;;;;;;52.38;30.48;;;;;;;;;;5114200;28;20050;-69
2023/03/22 04:25:02;;;;;;;55.55;30.98;;;;;;;;;;5099941;28;20038;-69
2023/03/22 04:27:49;;;;;;;52.42;30.30;;;;;;;;;;5114180;28;20020;-70
2023/03/22 04:30:35;;;;;;;52.50;29.90;;;;;;;;;;5104581;28;20075;-70
2023/03/22 04:33:21;;;;;;;49.60;28.27;;;;;;;;;;5102387;28;20027;-70
2023/03/22 04:36:09;;;;;;;51.00;28.90;;;;;;;;;;5104096;28;20444;-70
2023/03/22 04:38:54;;;;;;;50.33;28.77;;;;;;;;;;5105567;27;20053;-69
2023/03/22 04:41:40;;;;;;;50.30;28.20;;;;;;;;;;5118909;28;20399;-70
2023/03/22 04:44:25;;;;;;;53.05;28.27;;;;;;;;;;5119093;27;20028;-70
2023/03/22 04:47:11;;;;;;;51.17;28.58;;;;;;;;;;5120219;27;20077;-71
2023/03/22 04:49:57;;;;;;;51.45;28.08;;;;;;;;;;5117795;28;20410;-71
2023/03/22 04:52:42;;;;;;;49.95;28.70;;;;;;;;;;5119712;28;20473;-70
2023/03/22 04:55:28;;;;;;;52.70;29.85;;;;;;;;;;5117921;28;20035;-70
2023/03/22 04:58:15;;;;;;;54.80;29.73;;;;;;;;;;5102904;28;20020;-71
2023/03/22 05:01:01;;;;;;;49.83;28.02;;;;;;;;;;5118020;28;20031;-70
2023/03/22 05:03:47;;;;;;;55.78;29.48;;;;;;;;;;5105670;27;20436;-70
2023/03/22 05:06:33;;;;;;;45.60;26.92;;;;;;;;;;5116906;28;20059;-70
2023/03/22 05:09:18;;;;;;;56.88;30.23;;;;;;;;;;5117620;28;20016;-70
2023/03/22 05:12:04;;;;;;;47.05;26.88;;;;;;;;;;5117331;28;20031;-71
2023/03/22 05:14:50;;;;;;;49.95;27.50;;;;;;;;;;5117013;28;20431;-71
2023/03/22 05:17:35;;;;;;;48.58;27.48;;;;;;;;;;5104354;28;20375;-70
2023/03/22 05:20:21;;;;;;;54.15;28.90;;;;;;;;;;5117118;28;20106;-70
2023/03/22 05:23:08;;;;;;;45.92;27.15;;;;;;;;;;5117675;28;20024;-70
2023/03/22 05:25:57;;;;;;;50.47;28.55;;;;;;;;;;5104074;28;20012;-69
2023/03/22 05:28:42;;;;;;;49.42;29.15;;;;;;;;;;5102697;28;20016;-71
2023/03/22 05:31:28;;;;;;;51.47;29.33;;;;;;;;;;5117568;28;20034;-69
2023/03/22 05:34:13;;;;;;;52.38;28.95;;;;;;;;;;5116730;28;20031;-71
2023/03/22 05:36:59;;;;;;;48.45;28.00;;;;;;;;;;5117281;28;20023;-70
2023/03/22 05:39:45;;;;;;;56.08;29.55;;;;;;;;;;5117600;28;20031;-70
2023/03/22 05:42:31;;;;;;;49.47;28.13;;;;;;;;;;5116389;28;20023;-70
2023/03/22 05:45:17;;;;;;;55.15;30.20;;;;;;;;;;5120339;28;20071;-70
2023/03/22 05:48:02;;;;;;;55.63;30.92;;;;;;;;;;5117188;28;20348;-70
2023/03/22 05:50:48;;;;;;;54.97;29.00;;;;;;;;;;5116850;28;20073;-72
2023/03/22 05:53:34;;;;;;;53.15;29.42;;;;;;;;;;5116706;28;20015;-70
2023/03/22 05:56:23;;;;;;;50.55;28.40;;;;;;;;;;5117504;28;20034;-69
2023/03/22 05:59:08;;;;;;;57.10;29.35;;;;;;;;;;5116441;28;20080;-70
2023/03/22 06:01:54;;;;;;;51.90;28.55;;;;;;;;;;5118442;28;20402;-71
2023/03/22 06:04:40;;;;;;;55.60;30.10;;;;;;;;;;5102935;28;20020;-69
2023/03/22 06:07:26;;;;;;;56.70;30.83;;;;;;;;;;5117931;28;20481;-69
2023/03/22 06:10:12;;;;;;;58.88;31.20;;;;;;;;;;5116751;28;20024;-70
2023/03/22 06:12:57;;;;;;;57.95;32.75;;;;;;;;;;5117076;28;20045;-70
2023/03/22 06:15:44;;;;;;;59.10;32.40;;;;;;;;;;5116299;28;20035;-70
2023/03/22 06:18:30;;;;;;;55.95;30.70;;;;;;;;;;5101650;28;20043;-69
2023/03/22 06:21:15;;;;;;;59.00;32.42;;;;;;;;;;5116023;28;20024;-70
2023/03/22 06:24:01;;;;;;;58.53;31.13;;;;;;;;;;5116982;28;20073;-69
2023/03/22 06:26:46;;;;;;;52.65;28.17;;;;;;;;;;5102018;28;20019;-69
2023/03/22 06:29:32;;;;;;;49.05;28.00;;;;;;;;;;5116532;28;20037;-71
2023/03/22 06:32:17;;;;;;;51.22;27.35;;;;;;;;;;5116231;28;20034;-71
2023/03/22 06:35:03;;;;;;;49.72;28.70;;;;;;;;;;5116462;28;20024;-71
2023/03/22 06:37:49;;;;;;;52.38;30.13;;;;;;;;;;5115834;28;20019;-71
2023/03/22 06:40:35;;;;;;;47.05;28.05;;;;;;;;;;5116328;28;20038;-73
2023/03/22 06:43:21;;;;;;;47.95;27.83;;;;;;;;;;5100462;28;20031;-70
2023/03/22 06:46:06;;;;;;;45.58;27.02;;;;;;;;;;5116105;28;20020;-70
2023/03/22 06:48:52;;;;;;;48.35;26.73;;;;;;;;;;5115327;28;20016;-70
2023/03/22 06:51:38;;;;;;;45.47;25.13;;;;;;;;;;5114618;28;20034;-71
2023/03/22 06:54:23;;;;;;;48.85;27.25;;;;;;;;;;5115888;28;20028;-70
2023/03/22 06:57:09;;;;;;;48.92;27.25;;;;;;;;;;5115873;28;20041;-70
2023/03/22 06:59:54;;;;;;;49.50;26.55;;;;;;;;;;5100471;28;20080;-71
2023/03/22 07:02:40;;;;;;;50.35;26.15;;;;;;;;;;5115231;28;20028;-69
2023/03/22 07:05:25;;;;;;;43.88;24.60;;;;;;;;;;5114894;28;20031;-70
2023/03/22 07:08:11;;;;;;;41.17;24.63;;;;;;;;;;5115342;28;20395;-70
2023/03/22 07:10:57;;;;;;;43.17;26.65;;;;;;;;;;5114221;28;20387;-69
2023/03/22 07:13:44;;;;;;;42.97;25.73;;;;;;;;;;5115167;28;20518;-69
2023/03/22 07:16:29;;;;;;;46.70;26.92;;;;;;;;;;5114725;28;20023;-69
2023/03/22 07:19:17;;;;;;;46.97;26.52;;;;;;;;;;5099559;28;20455;-70
2023/03/22 07:22:02;;;;;;;39.53;23.98;;;;;;;;;;5100720;28;20089;-70
2023/03/22 07:24:48;;;;;;;43.60;25.05;;;;;;;;;;5115036;28;20016;-71
2023/03/22 07:27:34;;;;;;;42.28;24.92;;;;;;;;;;5114682;28;20008;-70
2023/03/22 07:30:19;;;;;;;43.97;26.08;;;;;;;;;;5114473;28;20047;-70
2023/03/22 07:33:06;;;;;;;51.15;30.60;;;;;;;;;;5115528;28;20031;-71
2023/03/22 07:35:51;;;;;;;42.38;25.40;;;;;;;;;;5114771;28;20031;-71
2023/03/22 07:38:37;;;;;;;40.45;26.05;;;;;;;;;;5115461;28;20023;-71
2023/03/22 07:41:23;;;;;;;41.97;25.17;;;;;;;;;;5100557;28;20019;-71
2023/03/22 07:44:08;;;;;;;41.72;24.42;;;;;;;;;;5114685;28;20026;-71
2023/03/22 07:46:54;;;;;;;44.58;25.52;;;;;;;;;;5115232;28;20034;-72
2023/03/22 07:49:40;;;;;;;41.72;24.55;;;;;;;;;;5100304;28;20402;-71
2023/03/22 07:52:26;;;;;;;46.90;27.67;;;;;;;;;;5114061;28;20429;-73
2023/03/22 07:55:13;;;;;;;37.83;23.40;;;;;;;;;;5100731;28;20436;-73
2023/03/22 07:57:58;;;;;;;38.85;23.05;;;;;;;;;;5115432;28;20024;-73
2023/03/22 08:00:44;;;;;;;35.55;22.27;;;;;;;;;;5114880;28;20023;-72
2023/03/22 08:03:30;;;;;;;32.58;20.98;;;;;;;;;;5100650;28;20103;-71
2023/03/22 08:06:17;;;;;;;32.58;20.33;;;;;;;;;;5104795;28;20435;-73
2023/03/22 08:09:07;;;;;;;32.30;20.42;;;;;;;;;;5119180;28;20024;-73
2023/03/22 08:11:52;;;;;;;32.95;21.30;;;;;;;;;;5105092;28;20103;-73
2023/03/22 08:14:38;;;;;;;36.15;21.45;;;;;;;;;;5103917;28;20019;-71
2023/03/22 08:17:24;;;;;;;37.58;21.85;;;;;;;;;;5118268;28;20024;-72
2023/03/22 08:20:11;;;;;;;33.53;20.20;;;;;;;;;;5118209;28;20433;-72
2023/03/22 08:22:57;;;;;;;35.08;21.13;;;;;;;;;;5104485;28;20097;-73
2023/03/22 08:25:43;;;;;;;38.00;22.75;;;;;;;;;;5104411;28;20428;-72
2023/03/22 08:28:28;;;;;;;32.00;20.23;;;;;;;;;;5104555;28;20019;-72
2023/03/22 08:31:15;;;;;;;32.15;20.35;;;;;;;;;;5103691;28;20380;-72
2023/03/22 08:34:01;;;;;;;38.17;21.98;;;;;;;;;;5116865;28;20035;-72
2023/03/22 08:36:47;;;;;;;32.20;20.33;;;;;;;;;;5103926;28;20055;-72
2023/03/22 08:39:33;;;;;;;36.95;20.58;;;;;;;;;;5117216;28;20035;-73
2023/03/22 08:42:18;;;;;;;30.45;19.23;;;;;;;;;;5117544;28;20015;-73
2023/03/22 08:45:04;;;;;;;30.58;19.40;;;;;;;;;;5118000;28;20020;-71
2023/03/22 08:47:50;;;;;;;33.03;20.77;;;;;;;;;;5104965;27;20030;-72
2023/03/22 08:50:36;;;;;;;30.58;20.05;;;;;;;;;;5104571;28;20035;-73
2023/03/22 08:53:22;;;;;;;31.45;19.75;;;;;;;;;;5117703;28;20110;-73
2023/03/22 08:56:08;;;;;;;32.80;20.35;;;;;;;;;;5102892;28;20031;-73
2023/03/22 08:58:54;;;;;;;30.83;20.50;;;;;;;;;;5117491;28;20058;-73
2023/03/22 09:01:39;;;;;;;28.60;18.58;;;;;;;;;;5103064;28;20020;-72
2023/03/22 09:04:25;;;;;;;26.70;17.83;;;;;;;;;;5118025;28;20047;-72
2023/03/22 09:07:11;;;;;;;25.52;16.98;;;;;;;;;;5102913;28;20481;-72
2023/03/22 09:09:56;;;;;;;26.67;17.10;;;;;;;;;;5117212;28;20031;-72
2023/03/22 09:12:42;;;;;;;25.80;18.00;;;;;;;;;;5118176;28;20019;-72
2023/03/22 09:15:27;;;;;;;29.02;18.98;;;;;;;;;;5103425;28;20033;-73
2023/03/22 09:18:14;;;;;;;24.33;16.40;;;;;;;;;;5102277;28;20023;-72
2023/03/22 09:20:59;;;;;;;26.45;17.92;;;;;;;;;;5103960;28;20016;-74
2023/03/22 09:23:46;;;;;;;25.25;16.58;;;;;;;;;;5102589;28;20031;-72
2023/03/22 09:26:32;;;;;;;24.50;16.52;;;;;;;;;;5103047;28;20115;-73
2023/03/22 09:29:18;;;;;;;26.65;18.00;;;;;;;;;;5117556;28;20015;-72
2023/03/22 09:32:04;;;;;;;32.83;21.95;;;;;;;;;;5116292;28;20027;-72
2023/03/22 09:34:49;;;;;;;41.55;25.15;;;;;;;;;;5103181;28;20030;-73
2023/03/22 09:37:35;;;;;;;24.80;16.73;;;;;;;;;;5116187;28;20360;-73
2023/03/22 09:40:23;;;;;;;21.83;15.07;;;;;;;;;;5118276;28;20027;-73
2023/03/22 09:43:11;;;;;;;21.98;15.13;;;;;;;;;;5117055;28;20410;-72
2023/03/22 09:45:57;;;;;;;22.65;16.27;;;;;;;;;;5103093;28;20015;-72
2023/03/22 09:48:45;;;;;;;21.95;15.45;;;;;;;;;;5117254;28;20023;-74
2023/03/22 09:51:40;;;;;;;20.75;14.55;;;;;;;;;;5117293;28;20103;-72
2023/03/22 09:54:25;;;;;;;19.27;14.00;;;;;;;;;;5116965;28;20026;-72
2023/03/22 09:57:11;;;;;;;21.45;14.27;;;;;;;;;;5117740;28;20436;-73
2023/03/22 09:59:57;;;;;;;20.40;13.98;;;;;;;;;;5102188;28;20027;-74
2023/03/22 10:02:45;;;;;;;22.30;16.17;;;;;;;;;;5115577;28;20345;-72
2023/03/22 10:05:36;;;;;;;23.58;16.70;;;;;;;;;;5114967;28;20371;-72
2023/03/22 10:08:25;;;;;;;20.23;14.70;;;;;;;;;;5101502;28;20102;-73
2023/03/22 10:11:17;;;;;;;20.60;13.32;;;;;;;;;;5116879;28;20031;-73
2023/03/22 10:14:14;;;;;;;18.92;13.73;;;;;;;;;;5115942;28;20478;-72
2023/03/22 10:17:04;;;;;;;21.27;14.05;;;;;;;;;;5117414;28;20105;-72
2023/03/22 10:19:55;;;;;;;21.60;14.30;;;;;;;;;;5117430;28;20035;-72
2023/03/22 10:22:42;;;;;;;19.50;13.65;;;;;;;;;;5124386;28;20034;-71
2023/03/22 10:25:35;;;;;;;20.10;13.35;;;;;;;;;;5106819;27;20429;-72
2023/03/22 10:28:23;;;;;;;33.70;20.88;;;;;;;;;;5114846;28;20027;-73
2023/03/22 10:31:14;;;;;;;20.10;14.27;;;;;;;;;;5114965;28;20020;-74
2023/03/22 10:34:10;;;;;;;18.50;13.32;;;;;;;;;;5116134;28;20031;-72
2023/03/22 10:36:59;;;;;;;19.05;13.45;;;;;;;;;;5116605;28;20027;-73
2023/03/22 10:39:48;;;;;;;20.08;13.50;;;;;;;;;;5115894;28;20120;-73
2023/03/22 10:42:35;;;;;;;18.75;13.98;;;;;;;;;;5110508;28;20024;-74
2023/03/22 10:45:22;;;;;;;18.77;13.65;;;;;;;;;;5125234;28;20100;-72
2023/03/22 10:48:13;;;;;;;20.50;14.25;;;;;;;;;;5115772;28;20352;-72
2023/03/22 10:50:59;;;;;;;21.60;14.23;;;;;;;;;;5120266;28;20537;-71
2023/03/22 10:53:47;;;;;;;18.05;13.55;;;;;;;;;;5115593;28;20114;-71
2023/03/22 10:56:32;;;;;;;20.77;15.00;;;;;;;;;;5116232;28;20143;-72
2023/03/22 10:59:36;;;;;;;18.35;13.38;;;;;;;;;;5115318;28;20019;-72
2023/03/22 11:02:27;;;;;;;23.58;15.20;;;;;;;;;;5114884;28;20042;-72
2023/03/22 11:05:29;;;;;;;19.42;13.63;;;;;;;;;;5115773;28;20512;-73
2023/03/22 11:08:14;;;;;;;18.42;13.48;;;;;;;;;;5115004;28;20086;-73
2023/03/22 11:11:04;;;;;;;19.60;14.18;;;;;;;;;;5116557;28;20096;-72
2023/03/22 11:13:52;;;;;;;18.27;14.27;;;;;;;;;;5117475;28;20015;-75
2023/03/22 11:16:53;;;;;;;20.67;14.85;;;;;;;;;;5117624;28;20446;-71
2023/03/22 11:19:40;;;;;;;19.38;13.85;;;;;;;;;;5114772;28;20351;-72
2023/03/22 11:22:25;;;;;;;21.40;14.95;;;;;;;;;;5115088;28;20099;-72
2023/03/22 11:25:16;;;;;;;20.77;15.43;;;;;;;;;;5100216;28;20012;-72
2023/03/22 11:28:04;;;;;;;23.83;16.50;;;;;;;;;;5114914;28;20019;-72
2023/03/22 11:31:16;;;;;;;20.73;15.35;;;;;;;;;;5100965;28;20020;-73
2023/03/22 11:34:02;;;;;;;19.85;14.50;;;;;;;;;;5101020;28;20060;-72
2023/03/22 11:36:55;;;;;;;24.58;17.05;;;;;;;;;;5115861;28;20082;-71
2023/03/22 11:39:44;;;;;;;23.15;16.70;;;;;;;;;;5101128;27;20062;-73
2023/03/22 11:42:32;;;;;;;25.08;16.67;;;;;;;;;;5115854;28;20444;-72
2023/03/22 11:45:26;;;;;;;22.15;15.80;;;;;;;;;;5114764;28;20043;-72
2023/03/22 11:48:14;;;;;;;23.02;16.13;;;;;;;;;;5070552;28;20023;-72
2023/03/22 11:51:05;;;;;;;19.80;14.73;;;;;;;;;;5084567;28;20031;-71
2023/03/22 11:53:54;;;;;;;21.40;15.73;;;;;;;;;;5070219;28;20449;-70
2023/03/22 11:56:42;;;;;;;21.92;16.20;;;;;;;;;;5085987;28;20349;-70
2023/03/22 11:59:30;;;;;;;20.63;15.50;;;;;;;;;;5084608;28;20122;-72
2023/03/22 12:02:34;;;;;;;20.50;15.10;;;;;;;;;;5082868;28;20456;-72
2023/03/22 12:05:21;;;;;;;21.23;14.63;;;;;;;;;;5054280;28;20031;-72
2023/03/22 12:08:15;;;;;;;19.98;15.15;;;;;;;;;;5084756;28;20078;-72
2023/03/22 12:11:06;;;;;;;18.55;14.00;;;;;;;;;;5083260;28;20468;-71
2023/03/22 12:14:00;;;;;;;19.38;14.13;;;;;;;;;;5083623;28;20032;-72
2023/03/22 12:16:50;;;;;;;19.85;14.60;;;;;;;;;;5084132;28;20024;-72
2023/03/22 12:19:59;;;;;;;21.55;15.30;;;;;;;;;;5085479;28;20040;-71
2023/03/22 12:22:49;;;;;;;19.65;15.20;;;;;;;;;;5067951;28;20105;-72
2023/03/22 12:25:39;;;;;;;18.60;14.13;;;;;;;;;;5082777;28;20126;-71
2023/03/22 12:28:28;;;;;;;19.60;14.02;;;;;;;;;;5084874;28;20103;-71
2023/03/22 12:31:20;;;;;;;22.25;15.65;;;;;;;;;;5085059;28;20024;-72
2023/03/22 12:34:10;;;;;;;20.33;15.75;;;;;;;;;;5082878;28;20035;-72
2023/03/22 12:36:56;;;;;;;20.27;15.07;;;;;;;;;;5083333;28;20036;-72
2023/03/22 12:40:04;;;;;;;20.77;16.52;;;;;;;;;;5085656;28;20467;-71
2023/03/22 12:43:08;;;;;;;26.67;18.52;;;;;;;;;;5069251;28;20066;-72
2023/03/22 12:45:57;;;;;;;21.40;16.02;;;;;;;;;;5071015;28;20598;-71
2023/03/22 12:49:21;;;;;;;25.52;18.58;;;;;;;;;;5086011;28;20456;-71
2023/03/22 12:52:19;;;;;;;26.90;18.23;;;;;;;;;;4972315;28;20030;-71
2023/03/22 12:55:05;;;;;;;25.90;18.10;;;;;;;;;;4971558;28;20018;-72
2023/03/22 12:57:53;;;;;;;23.05;17.75;;;;;;;;;;5068377;28;20051;-71
2023/03/22 13:00:44;;;;;;;24.30;17.83;;;;;;;;;;5088459;28;20034;-71
2023/03/22 13:03:44;;;;;;;25.60;18.20;;;;;;;;;;5087093;28;20101;-71
2023/03/22 13:06:49;;;;;;;24.95;17.15;;;;;;;;;;5078115;28;20045;-71
2023/03/22 13:09:37;;;;;;;25.38;17.38;;;;;;;;;;5065029;28;20029;-71
2023/03/22 13:12:23;;;;;;;25.63;18.58;;;;;;;;;;5067210;28;20123;-72
2023/03/22 13:15:28;;;;;;;21.40;16.63;;;;;;;;;;5065104;28;20028;-72
2023/03/22 13:18:29;;;;;;;20.65;15.93;;;;;;;;;;5066250;28;20109;-72
2023/03/22 13:21:18;;;;;;;21.30;15.93;;;;;;;;;;5067034;28;20381;-70
2023/03/22 13:24:14;;;;;;;20.73;15.45;;;;;;;;;;5064009;28;20021;-71
2023/03/22 13:27:00;;;;;;;23.13;16.05;;;;;;;;;;5067458;28;20016;-72
2023/03/22 13:29:48;;;;;;;18.38;14.43;;;;;;;;;;5068002;28;20036;-72
2023/03/22 13:32:33;;;;;;;23.85;15.82;;;;;;;;;;5065689;28;20365;-72
2023/03/22 13:35:26;;;;;;;21.15;15.57;;;;;;;;;;5064775;28;20437;-71
2023/03/22 13:38:28;;;;;;;19.10;13.88;;;;;;;;;;5066695;28;20033;-72
2023/03/22 13:41:25;;;;;;;15.73;12.57;;;;;;;;;;5052973;28;20037;-71
2023/03/22 13:44:25;;;;;;;16.80;12.85;;;;;;;;;;5064930;28;20086;-71
2023/03/22 13:47:33;;;;;;;15.98;12.80;;;;;;;;;;5066414;28;20024;-71
2023/03/22 13:50:28;;;;;;;15.43;12.20;;;;;;;;;;5066970;28;20025;-72
2023/03/22 13:53:14;;;;;;;16.55;12.10;;;;;;;;;;5066571;28;20381;-71
2023/03/22 13:56:03;;;;;;;14.18;11.05;;;;;;;;;;5067100;28;20543;-71
2023/03/22 13:58:51;;;;;;;16.85;12.48;;;;;;;;;;5066200;28;20056;-72
2023/03/22 14:01:49;;;;;;;15.40;12.05;;;;;;;;;;5065814;28;20107;-71
2023/03/22 14:04:41;;;;;;;16.42;12.38;;;;;;;;;;5050759;28;20034;-71
2023/03/22 14:07:35;;;;;;;15.85;11.77;;;;;;;;;;5068050;28;20060;-71
2023/03/22 14:10:27;;;;;;;14.52;11.65;;;;;;;;;;5068894;28;20025;-72
2023/03/22 14:13:15;;;;;;;14.75;11.45;;;;;;;;;;5066768;28;20132;-71
2023/03/22 14:16:20;;;;;;;19.08;11.70;;;;;;;;;;5066559;28;20036;-70
2023/03/22 14:19:07;;;;;;;15.50;11.35;;;;;;;;;;5065969;28;20024;-72
2023/03/22 14:21:55;;;;;;;16.70;10.90;;;;;;;;;;5063661;28;20114;-71
2023/03/22 14:24:41;;;;;;;16.05;10.85;;;;;;;;;;5065351;28;20082;-71
2023/03/22 14:27:27;;;;;;;24.58;11.63;;;;;;;;;;5052760;28;20222;-71
2023/03/22 14:30:33;;;;;;;22.08;12.77;;;;;;;;;;5066610;28;20028;-71
2023/03/22 14:33:20;;;;;;;24.23;13.18;;;;;;;;;;5067221;28;20033;-69
2023/03/22 14:36:08;;;;;;;25.63;12.85;;;;;;;;;;5066453;28;20020;-70
2023/03/22 14:38:56;;;;;;;19.98;12.07;;;;;;;;;;5066190;28;20120;-72
2023/03/22 14:41:58;;;;;;;21.48;11.77;;;;;;;;;;5065989;28;20036;-72
2023/03/22 14:44:46;;;;;;;16.00;11.50;;;;;;;;;;5054987;28;20025;-71
2023/03/22 14:47:39;;;;;;;17.63;11.25;;;;;;;;;;5065293;28;20021;-71
2023/03/22 14:50:24;;;;;;;16.52;11.95;;;;;;;;;;5069435;28;20104;-73
2023/03/22 14:53:10;;;;;;;14.88;11.23;;;;;;;;;;5067367;28;20095;-70
2023/03/22 14:55:57;;;;;;;15.15;10.60;;;;;;;;;;5067016;28;20110;-72
2023/03/22 14:58:43;;;;;;;15.63;11.43;;;;;;;;;;5066274;28;20032;-72
2023/03/22 15:01:37;;;;;;;13.13;10.45;;;;;;;;;;5067932;28;20032;-73
2023/03/22 15:04:23;;;;;;;13.48;10.20;;;;;;;;;;5065068;28;20059;-71
2023/03/22 15:07:12;;;;;;;15.10;10.55;;;;;;;;;;5081178;28;20048;-72
2023/03/22 15:10:14;;;;;;;17.40;12.40;;;;;;;;;;5086287;28;20028;-72
2023/03/22 15:13:00;;;;;;;14.63;10.93;;;;;;;;;;5087008;28;20046;-72
2023/03/22 15:15:49;;;;;;;17.42;11.13;;;;;;;;;;5083679;28;20438;-73
2023/03/22 15:18:35;;;;;;;18.63;12.27;;;;;;;;;;5086193;28;20356;-72
2023/03/22 15:21:20;;;;;;;19.35;11.95;;;;;;;;;;5071066;28;20188;-71
2023/03/22 15:24:23;;;;;;;18.65;12.02;;;;;;;;;;5084331;28;20020;-72
2023/03/22 15:27:11;;;;;;;23.70;13.02;;;;;;;;;;5085336;28;20122;-72
2023/03/22 15:29:56;;;;;;;23.77;14.15;;;;;;;;;;5071214;28;20364;-72
2023/03/22 15:32:42;;;;;;;22.00;12.60;;;;;;;;;;5085145;28;20103;-71
2023/03/22 15:35:28;;;;;;;31.08;14.95;;;;;;;;;;5083748;28;20016;-73
2023/03/22 15:38:14;;;;;;;22.75;14.68;;;;;;;;;;5085504;28;20106;-72
2023/03/22 15:41:00;;;;;;;22.92;14.75;;;;;;;;;;5068846;28;20028;-72
2023/03/22 15:43:48;;;;;;;23.20;14.77;;;;;;;;;;5084256;28;20468;-72
2023/03/22 15:46:47;;;;;;;57.03;34.33;;;;;;;;;;5086129;28;20089;-72
2023/03/22 15:49:37;;;;;;;23.45;15.70;;;;;;;;;;5087255;28;20078;-72
2023/03/22 15:52:27;;;;;;;21.00;14.55;;;;;;;;;;5085087;28;20035;-73
2023/03/22 15:55:18;;;;;;;23.75;15.25;;;;;;;;;;5083271;28;20206;-71
2023/03/22 15:58:15;;;;;;;22.30;16.30;;;;;;;;;;5085996;28;20103;-71
2023/03/22 16:01:07;;;;;;;19.83;14.30;;;;;;;;;;5085797;28;20032;-70
2023/03/22 16:03:55;;;;;;;20.52;13.98;;;;;;;;;;5067938;28;20020;-72
2023/03/22 16:06:41;;;;;;;24.67;15.88;;;;;;;;;;5085135;28;20105;-71
2023/03/22 16:09:27;;;;;;;21.23;15.70;;;;;;;;;;5086936;28;20455;-72
2023/03/22 16:12:15;;;;;;;21.27;15.98;;;;;;;;;;5086149;28;20020;-71
2023/03/22 16:15:00;;;;;;;19.63;14.30;;;;;;;;;;5085136;28;20508;-71
2023/03/22 16:17:46;;;;;;;21.63;14.73;;;;;;;;;;5085264;28;20119;-71
2023/03/22 16:20:32;;;;;;;19.27;13.95;;;;;;;;;;5071847;28;20100;-72